Time;durP1;ratioP1;P1;durP2;ratioP2;P2;SDS_P1;SDS_P2;PMS_P1;PMS_P2;Temp;Humidity;BMP_temperature;BMP_pressure;BME280_temperature;BME280_humidity;BME280_pressure;Samples;Min_cycle;Max_cycle;Signal;HPM_P1;HPM_P2
2023/03/20 00:01:12;;;;;;;12.55;6.70;;;8.60;99.90;;;;;;5030575;28;20099;-64
2023/03/20 00:03:39;;;;;;;9.88;5.32;;;8.70;99.90;;;;;;5012041;28;20289;-63
2023/03/20 00:06:18;;;;;;;10.02;5.00;;;8.60;99.90;;;;;;5011006;28;20065;-64
2023/03/20 00:08:46;;;;;;;10.95;5.40;;;8.60;99.90;;;;;;5010848;28;20054;-64
2023/03/20 00:11:35;;;;;;;9.15;4.97;;;8.60;99.90;;;;;;4995135;28;20065;-64
2023/03/20 00:14:08;;;;;;;14.95;6.13;;;8.60;99.90;;;;;;5030165;28;20103;-63
2023/03/20 00:16:45;;;;;;;9.30;5.20;;;8.50;99.90;;;;;;5031428;28;20050;-64
2023/03/20 00:19:23;;;;;;;13.02;6.32;;;8.50;99.90;;;;;;5031670;28;20060;-64
2023/03/20 00:21:51;;;;;;;10.65;5.20;;;8.50;99.90;;;;;;5031040;28;20045;-64
2023/03/20 00:24:18;;;;;;;9.38;6.57;;;8.50;99.90;;;;;;5031373;28;20386;-64
2023/03/20 00:26:45;;;;;;;10.77;5.75;;;8.50;99.90;;;;;;5030452;28;20788;-64
2023/03/20 00:29:26;;;;;;;10.73;5.10;;;8.50;99.90;;;;;;5031606;28;20041;-64
2023/03/20 00:31:54;;;;;;;10.57;5.00;;;8.50;99.90;;;;;;5030682;28;20053;-64
2023/03/20 00:34:22;;;;;;;10.73;4.50;;;8.50;99.90;;;;;;5030528;28;20053;-64
2023/03/20 00:36:49;;;;;;;11.93;4.88;;;8.50;99.90;;;;;;5031451;28;20049;-64
2023/03/20 00:39:16;;;;;;;12.63;4.72;;;8.50;99.90;;;;;;5031470;28;20111;-64
2023/03/20 00:41:52;;;;;;;15.90;5.40;;;8.50;99.90;;;;;;5030901;28;20048;-64
2023/03/20 00:44:29;;;;;;;9.35;4.88;;;8.40;99.90;;;;;;5031395;28;20053;-64
2023/03/20 00:47:17;;;;;;;10.63;5.15;;;8.40;99.90;;;;;;5031008;28;20401;-64
2023/03/20 00:49:46;;;;;;;10.38;4.40;;;8.50;99.90;;;;;;5030406;28;20046;-64
2023/03/20 00:52:13;;;;;;;9.35;5.50;;;8.40;99.90;;;;;;5030732;28;20107;-65
2023/03/20 00:54:40;;;;;;;11.27;5.63;;;8.50;99.90;;;;;;5031255;28;20454;-65
2023/03/20 00:57:12;;;;;;;12.43;6.25;;;8.50;99.90;;;;;;5031308;28;20099;-64
2023/03/20 00:59:56;;;;;;;10.80;6.10;;;8.50;99.90;;;;;;5031393;28;20060;-63
2023/03/20 01:02:27;;;;;;;12.88;5.78;;;8.50;99.90;;;;;;5029285;28;20262;-64
2023/03/20 01:04:53;;;;;;;12.82;6.63;;;8.50;99.90;;;;;;5030312;28;20056;-64
2023/03/20 01:07:20;;;;;;;16.33;7.57;;;8.50;99.90;;;;;;5031381;28;20056;-64
2023/03/20 01:09:46;;;;;;;17.40;8.48;;;8.50;99.90;;;;;;5031009;28;20053;-64
2023/03/20 01:12:15;;;;;;;13.48;7.72;;;8.50;99.90;;;;;;5030476;28;20060;-64
2023/03/20 01:14:42;;;;;;;15.57;7.30;;;8.50;99.90;;;;;;5033538;28;20678;-64
2023/03/20 01:17:18;;;;;;;15.48;7.93;;;8.50;99.90;;;;;;5035042;28;20053;-64
2023/03/20 01:19:44;;;;;;;15.32;8.00;;;8.40;99.90;;;;;;5034861;28;20053;-64
2023/03/20 01:22:12;;;;;;;19.58;9.32;;;8.50;99.90;;;;;;5034136;28;20052;-64
2023/03/20 01:24:39;;;;;;;14.10;8.15;;;8.50;99.90;;;;;;5034764;28;20045;-63
2023/03/20 01:27:17;;;;;;;19.17;9.23;;;8.50;99.90;;;;;;5034853;28;20473;-64
2023/03/20 01:29:44;;;;;;;17.30;8.45;;;8.40;99.90;;;;;;5033756;28;20053;-64
2023/03/20 01:32:12;;;;;;;18.70;9.38;;;8.40;99.90;;;;;;5033079;28;20041;-65
2023/03/20 01:34:39;;;;;;;16.48;8.70;;;8.40;99.90;;;;;;5034509;28;20459;-64
2023/03/20 01:37:12;;;;;;;19.70;8.60;;;8.40;99.90;;;;;;5034735;28;20045;-65
2023/03/20 01:39:38;;;;;;;17.88;8.57;;;8.30;99.90;;;;;;5017047;28;20053;-64
2023/03/20 01:42:06;;;;;;;14.73;8.48;;;8.30;99.90;;;;;;5032551;28;20068;-64
2023/03/20 01:44:34;;;;;;;15.48;8.27;;;8.40;99.90;;;;;;5034109;28;20046;-64
2023/03/20 01:47:05;;;;;;;15.43;8.07;;;8.40;99.90;;;;;;5034562;28;20041;-65
2023/03/20 01:50:09;;;;;;;15.20;8.88;;;8.40;99.90;;;;;;5034756;28;20041;-65
2023/03/20 01:52:36;;;;;;;17.48;8.45;;;8.40;99.90;;;;;;5033840;28;20451;-64
2023/03/20 01:55:02;;;;;;;15.70;8.63;;;8.50;99.90;;;;;;5034203;28;20049;-64
2023/03/20 01:57:29;;;;;;;14.40;8.30;;;8.40;99.90;;;;;;5034327;28;20377;-63
2023/03/20 02:00:02;;;;;;;13.75;8.85;;;8.50;99.90;;;;;;5034321;28;20049;-64
2023/03/20 02:02:30;;;;;;;16.42;8.95;;;8.50;99.90;;;;;;5033902;28;20118;-64
2023/03/20 02:05:05;;;;;;;13.43;7.82;;;8.50;99.90;;;;;;5032948;28;20045;-64
2023/03/20 02:07:33;;;;;;;14.05;7.97;;;8.50;99.90;;;;;;5034060;28;20041;-65
2023/03/20 02:10:02;;;;;;;17.35;9.05;;;8.40;99.90;;;;;;5033146;28;20379;-64
2023/03/20 02:12:28;;;;;;;18.55;8.55;;;8.50;99.90;;;;;;5033215;28;20133;-64
2023/03/20 02:14:55;;;;;;;16.67;8.48;;;8.40;99.90;;;;;;5033202;28;20116;-65
2023/03/20 02:17:21;;;;;;;15.20;8.18;;;8.40;99.90;;;;;;5032773;28;20067;-64
2023/03/20 02:20:11;;;;;;;13.63;8.15;;;8.40;99.90;;;;;;5032752;28;20429;-64
2023/03/20 02:22:40;;;;;;;;;;;8.50;99.90;;;;;;5033524;28;20037;-64
2023/03/20 02:25:33;;;;;;;17.02;8.57;;;8.40;99.90;;;;;;5033030;28;19921;-64
2023/03/20 02:28:21;;;;;;;14.55;7.97;;;8.50;99.90;;;;;;5033682;28;20053;-64
2023/03/20 02:31:21;;;;;;;13.80;6.90;;;8.50;99.90;;;;;;5032945;28;20049;-64
2023/03/20 02:34:21;;;;;;;14.43;8.00;;;8.50;99.90;;;;;;5012986;28;20050;-64
2023/03/20 02:36:59;;;;;;;14.25;7.40;;;8.50;99.90;;;;;;5013510;28;20388;-63
2023/03/20 02:40:24;;;;;;;13.63;7.55;;;8.50;99.90;;;;;;5014169;28;20115;-64
2023/03/20 02:43:12;;;;;;;13.77;7.15;;;8.50;99.90;;;;;;4985259;28;20449;-64
2023/03/20 02:46:02;;;;;;;15.95;6.78;;;8.50;99.90;;;;;;5033218;28;20045;-63
2023/03/20 02:48:31;;;;;;;14.02;6.43;;;8.40;99.90;;;;;;5033546;28;20050;-64
2023/03/20 02:51:11;;;;;;;11.60;6.35;;;8.50;99.90;;;;;;5033212;28;20115;-64
2023/03/20 02:54:06;;;;;;;9.40;5.35;;;8.50;99.90;;;;;;5033050;28;20053;-64
2023/03/20 02:56:54;;;;;;;10.18;5.80;;;8.40;99.90;;;;;;5031970;28;20103;-64
2023/03/20 02:59:48;;;;;;;10.60;6.28;;;8.50;99.90;;;;;;5031925;28;20057;-63
2023/03/20 03:02:45;;;;;;;12.15;6.45;;;8.50;99.90;;;;;;5032343;28;20057;-64
2023/03/20 03:05:22;;;;;;;11.70;6.30;;;8.40;99.90;;;;;;5033008;28;20049;-64
2023/03/20 03:07:52;;;;;;;11.00;6.07;;;8.40;99.90;;;;;;5032195;28;20050;-64
2023/03/20 03:10:42;;;;;;;11.15;6.82;;;8.50;99.90;;;;;;5032761;28;20460;-64
2023/03/20 03:13:14;;;;;;;9.75;5.60;;;8.40;99.90;;;;;;5026186;28;20045;-64
2023/03/20 03:15:46;;;;;;;11.32;5.85;;;8.40;99.90;;;;;;5032210;28;20049;-65
2023/03/20 03:18:22;;;;;;;11.15;5.40;;;8.40;99.90;;;;;;5032761;28;20045;-64
2023/03/20 03:20:55;;;;;;;10.95;5.50;;;8.40;99.90;;;;;;5031247;28;20049;-64
2023/03/20 03:23:30;;;;;;;11.98;5.68;;;8.40;99.90;;;;;;5032433;28;20045;-64
2023/03/20 03:25:59;;;;;;;11.38;5.07;;;8.40;99.90;;;;;;5032818;28;20109;-65
2023/03/20 03:28:40;;;;;;;10.68;5.72;;;8.40;99.90;;;;;;5032707;28;20049;-64
2023/03/20 03:31:14;;;;;;;11.88;5.35;;;8.40;99.90;;;;;;5032033;28;20434;-64
2023/03/20 03:33:45;;;;;;;9.30;5.53;;;8.40;99.90;;;;;;5032351;28;20490;-64
2023/03/20 03:36:46;;;;;;;10.65;4.88;;;8.40;99.90;;;;;;5031724;28;20042;-64
2023/03/20 03:39:24;;;;;;;10.57;5.75;;;8.40;99.90;;;;;;5024930;28;20060;-64
2023/03/20 03:42:26;;;;;;;9.25;5.78;;;8.40;99.90;;;;;;5031732;28;20056;-64
2023/03/20 03:45:07;;;;;;;8.85;5.20;;;8.40;99.90;;;;;;5031553;28;20060;-64
2023/03/20 03:47:46;;;;;;;13.23;6.50;;;8.40;99.90;;;;;;5032249;28;20107;-63
2023/03/20 03:50:20;;;;;;;10.15;5.40;;;8.30;99.90;;;;;;5032198;28;20107;-64
2023/03/20 03:52:49;;;;;;;9.60;5.55;;;8.40;99.90;;;;;;5031697;28;20060;-63
2023/03/20 03:55:24;;;;;;;10.77;6.95;;;8.30;99.90;;;;;;5032012;28;20056;-64
2023/03/20 03:58:08;;;;;;;13.13;6.30;;;8.30;99.90;;;;;;5032161;28;20427;-64
2023/03/20 04:00:36;;;;;;;12.05;6.80;;;8.30;99.90;;;;;;5031766;28;20053;-63
2023/03/20 04:03:06;;;;;;;13.07;6.90;;;8.20;99.90;;;;;;5031684;28;20045;-64
2023/03/20 04:05:36;;;;;;;14.55;7.35;;;8.20;99.90;;;;;;5031840;28;20038;-64
2023/03/20 04:08:04;;;;;;;15.52;7.88;;;8.20;99.90;;;;;;5031927;28;20056;-64
2023/03/20 04:10:30;;;;;;;14.90;8.20;;;8.10;99.90;;;;;;5031854;28;20046;-64
2023/03/20 04:12:57;;;;;;;13.77;8.43;;;8.10;99.90;;;;;;5030373;28;20053;-64
2023/03/20 04:15:26;;;;;;;13.50;7.97;;;8.10;99.90;;;;;;5031206;28;20486;-64
2023/03/20 04:17:52;;;;;;;15.75;8.32;;;8.10;99.90;;;;;;5030843;28;20394;-64
2023/03/20 04:20:19;;;;;;;13.02;7.88;;;8.10;99.90;;;;;;5031499;28;20083;-64
2023/03/20 04:22:45;;;;;;;13.65;8.48;;;8.10;99.90;;;;;;5013290;28;20113;-64
2023/03/20 04:25:18;;;;;;;13.98;7.47;;;8.10;99.90;;;;;;5031701;28;20052;-64
2023/03/20 04:27:44;;;;;;;13.85;8.35;;;8.10;99.90;;;;;;5030389;28;20057;-64
2023/03/20 04:30:11;;;;;;;16.60;8.05;;;8.00;99.90;;;;;;5030637;28;20045;-64
2023/03/20 04:32:38;;;;;;;14.82;9.02;;;8.00;99.90;;;;;;5029554;28;20366;-65
2023/03/20 04:35:05;;;;;;;14.82;7.90;;;8.10;99.90;;;;;;5030633;28;20458;-64
2023/03/20 04:37:31;;;;;;;14.93;8.25;;;8.10;99.90;;;;;;5031636;28;20103;-65
2023/03/20 04:39:57;;;;;;;13.68;8.10;;;8.00;99.90;;;;;;5031758;28;20053;-64
2023/03/20 04:42:23;;;;;;;14.27;8.30;;;8.00;99.90;;;;;;5031294;28;20259;-64
2023/03/20 04:44:49;;;;;;;13.52;8.55;;;8.00;99.90;;;;;;5032562;28;20119;-64
2023/03/20 04:47:16;;;;;;;14.20;8.13;;;7.90;99.90;;;;;;5032632;28;20482;-64
2023/03/20 04:49:42;;;;;;;12.90;8.38;;;7.90;99.90;;;;;;5035563;28;20046;-64
2023/03/20 04:52:08;;;;;;;13.73;8.55;;;8.00;99.90;;;;;;5034771;28;20458;-64
2023/03/20 04:54:34;;;;;;;13.90;8.73;;;7.90;99.90;;;;;;5035484;28;20119;-65
2023/03/20 04:57:01;;;;;;;14.10;8.20;;;7.90;99.90;;;;;;5035470;28;20049;-64
2023/03/20 04:59:27;;;;;;;14.98;8.15;;;7.90;99.90;;;;;;5035299;28;20053;-64
2023/03/20 05:01:53;;;;;;;13.27;8.55;;;7.90;99.90;;;;;;5034623;28;20056;-65
2023/03/20 05:04:20;;;;;;;15.95;8.50;;;7.90;99.90;;;;;;5035180;28;20045;-65
2023/03/20 05:06:48;;;;;;;13.57;9.45;;;7.90;99.90;;;;;;5033873;28;20405;-65
2023/03/20 05:09:15;;;;;;;15.25;7.88;;;7.90;99.90;;;;;;5034962;28;20054;-65
2023/03/20 05:11:42;;;;;;;12.75;7.68;;;7.90;99.90;;;;;;5034379;28;20042;-64
2023/03/20 05:14:10;;;;;;;14.38;8.48;;;7.90;99.90;;;;;;5035144;28;20465;-65
2023/03/20 05:16:37;;;;;;;18.92;9.43;;;7.90;99.90;;;;;;5035156;28;20045;-65
2023/03/20 05:19:04;;;;;;;14.57;8.40;;;7.90;99.90;;;;;;5020447;28;20052;-65
2023/03/20 05:21:31;;;;;;;12.65;7.68;;;7.90;99.90;;;;;;5044616;28;20041;-65
2023/03/20 05:23:57;;;;;;;14.05;9.05;;;7.90;99.90;;;;;;5041994;28;20041;-64
2023/03/20 05:26:23;;;;;;;15.55;8.88;;;7.90;99.90;;;;;;5023798;28;20072;-65
2023/03/20 05:28:55;;;;;;;13.82;7.15;;;7.80;99.90;;;;;;5023399;28;20042;-64
2023/03/20 05:31:21;;;;;;;13.60;7.97;;;7.90;99.90;;;;;;5020773;28;20053;-65
2023/03/20 05:33:47;;;;;;;14.13;7.00;;;7.90;99.90;;;;;;5031964;28;20140;-64
2023/03/20 05:36:13;;;;;;;13.32;7.65;;;7.90;99.90;;;;;;5044173;28;20050;-64
2023/03/20 05:38:40;;;;;;;15.35;8.20;;;7.90;99.90;;;;;;5041829;28;20078;-64
2023/03/20 05:41:06;;;;;;;16.15;7.63;;;7.90;99.90;;;;;;5040213;28;20072;-64
2023/03/20 05:43:32;;;;;;;13.93;7.85;;;7.90;99.90;;;;;;5042555;28;20078;-65
2023/03/20 05:45:59;;;;;;;14.35;8.07;;;7.80;99.90;;;;;;5044959;28;20041;-64
2023/03/20 05:48:25;;;;;;;14.68;7.80;;;7.80;99.90;;;;;;5041781;28;20423;-64
2023/03/20 05:50:51;;;;;;;14.60;7.85;;;7.80;99.90;;;;;;5043899;28;20045;-65
2023/03/20 05:53:18;;;;;;;14.32;7.32;;;7.90;99.90;;;;;;5043036;28;20064;-65
2023/03/20 05:55:44;;;;;;;13.98;8.57;;;7.80;99.90;;;;;;5041782;28;20053;-64
2023/03/20 05:58:11;;;;;;;12.73;7.53;;;7.80;99.90;;;;;;5044225;28;20048;-64
2023/03/20 06:00:38;;;;;;;14.10;9.20;;;7.80;99.90;;;;;;5041765;28;20423;-64
2023/03/20 06:03:07;;;;;;;14.02;8.00;;;7.90;99.90;;;;;;5042302;28;20049;-64
2023/03/20 06:05:34;;;;;;;14.13;7.50;;;7.80;99.90;;;;;;5043391;28;20438;-64
2023/03/20 06:08:01;;;;;;;18.60;8.63;;;7.90;99.90;;;;;;5038969;28;20493;-65
2023/03/20 06:10:29;;;;;;;17.13;8.40;;;7.80;99.90;;;;;;5042574;28;20041;-65
2023/03/20 06:12:56;;;;;;;16.95;8.27;;;7.90;99.90;;;;;;5043391;28;20151;-65
2023/03/20 06:15:22;;;;;;;17.50;7.97;;;7.90;99.90;;;;;;5044248;28;20080;-65
2023/03/20 06:17:49;;;;;;;14.45;8.30;;;7.90;99.90;;;;;;5053743;28;20068;-65
2023/03/20 06:20:16;;;;;;;17.08;9.80;;;7.90;99.90;;;;;;5053817;28;20346;-65
2023/03/20 06:22:42;;;;;;;15.68;8.35;;;8.00;99.90;;;;;;5042372;28;20049;-64
2023/03/20 06:25:09;;;;;;;16.70;8.52;;;8.00;99.90;;;;;;5033664;28;20060;-66
2023/03/20 06:27:35;;;;;;;15.63;7.93;;;8.00;99.90;;;;;;5032517;28;20076;-65
2023/03/20 06:30:02;;;;;;;15.63;8.23;;;8.00;99.90;;;;;;5033567;28;20049;-65
2023/03/20 06:32:28;;;;;;;13.68;8.40;;;8.10;99.90;;;;;;5033241;28;20050;-65
2023/03/20 06:34:54;;;;;;;17.75;8.40;;;8.00;99.90;;;;;;5033506;28;20060;-66
2023/03/20 06:37:20;;;;;;;16.83;8.82;;;8.00;99.90;;;;;;5033291;28;20123;-65
2023/03/20 06:39:47;;;;;;;19.05;9.48;;;8.10;99.90;;;;;;5033617;28;20049;-65
2023/03/20 06:42:13;;;;;;;16.95;9.35;;;8.00;99.90;;;;;;5032922;28;20080;-65
2023/03/20 06:44:39;;;;;;;16.92;9.77;;;8.10;99.90;;;;;;5033359;28;20049;-65
2023/03/20 06:47:05;;;;;;;20.67;10.00;;;8.10;99.90;;;;;;5033077;28;20049;-66
2023/03/20 06:49:32;;;;;;;18.63;9.77;;;8.10;99.90;;;;;;5032410;28;20056;-65
2023/03/20 06:51:58;;;;;;;18.02;9.77;;;8.10;99.90;;;;;;5032839;28;20049;-65
2023/03/20 06:54:25;;;;;;;18.50;11.00;;;8.10;99.90;;;;;;5033258;28;20428;-65
2023/03/20 06:56:51;;;;;;;17.20;9.02;;;8.10;99.90;;;;;;5032934;28;20053;-65
2023/03/20 06:59:18;;;;;;;15.90;8.75;;;8.10;99.90;;;;;;5032117;28;20127;-65
2023/03/20 07:01:44;;;;;;;19.20;9.80;;;8.10;99.90;;;;;;5031643;28;20053;-66
2023/03/20 07:04:10;;;;;;;19.45;9.60;;;8.10;99.90;;;;;;5031782;28;20052;-65
2023/03/20 07:06:37;;;;;;;19.73;9.70;;;8.10;99.90;;;;;;5032964;28;20041;-64
2023/03/20 07:09:04;;;;;;;18.23;9.77;;;8.10;99.90;;;;;;5031380;28;20053;-65
2023/03/20 07:11:30;;;;;;;17.30;9.73;;;8.10;99.90;;;;;;5032464;28;20304;-66
2023/03/20 07:13:58;;;;;;;17.17;8.80;;;8.10;99.90;;;;;;5032491;28;20477;-65
2023/03/20 07:16:24;;;;;;;19.48;10.45;;;8.10;99.90;;;;;;5032320;28;20448;-66
2023/03/20 07:18:51;;;;;;;17.95;9.88;;;8.20;99.90;;;;;;5032293;28;20058;-65
2023/03/20 07:21:20;;;;;;;15.98;9.52;;;8.30;99.90;;;;;;5031696;28;20057;-65
2023/03/20 07:23:46;;;;;;;16.63;9.55;;;8.30;99.90;;;;;;5032415;28;20041;-65
2023/03/20 07:26:13;;;;;;;14.93;9.45;;;8.30;99.90;;;;;;5030140;28;20037;-65
2023/03/20 07:28:39;;;;;;;15.32;9.80;;;8.40;99.90;;;;;;5032449;28;20053;-64
2023/03/20 07:31:05;;;;;;;18.17;10.15;;;8.40;99.90;;;;;;5031769;28;20491;-64
2023/03/20 07:33:32;;;;;;;16.83;9.40;;;8.40;99.90;;;;;;5032614;28;20053;-65
2023/03/20 07:35:58;;;;;;;16.42;9.20;;;8.40;99.90;;;;;;5033231;28;20064;-65
2023/03/20 07:38:24;;;;;;;20.38;9.73;;;8.40;99.90;;;;;;5032536;28;20045;-65
2023/03/20 07:40:53;;;;;;;16.02;9.10;;;8.50;99.90;;;;;;5041997;28;20057;-65
2023/03/20 07:43:19;;;;;;;15.55;10.00;;;8.50;99.90;;;;;;5027408;28;20084;-66
2023/03/20 07:45:45;;;;;;;18.10;10.82;;;8.50;99.90;;;;;;5031784;28;20085;-64
2023/03/20 07:48:15;;;;;;;16.02;9.88;;;8.60;99.90;;;;;;5032303;28;20052;-65
2023/03/20 07:50:41;;;;;;;18.55;10.15;;;8.60;99.90;;;;;;5032935;28;20048;-65
2023/03/20 07:53:07;;;;;;;15.05;10.23;;;8.70;99.90;;;;;;5032539;28;20147;-65
2023/03/20 07:55:33;;;;;;;19.88;11.07;;;8.80;99.90;;;;;;5032359;28;20374;-64
2023/03/20 07:58:00;;;;;;;20.35;12.13;;;8.80;99.90;;;;;;5032372;28;20535;-65
2023/03/20 08:00:26;;;;;;;19.63;10.40;;;8.70;99.90;;;;;;5031359;28;20076;-65
2023/03/20 08:02:55;;;;;;;19.13;10.00;;;8.80;99.90;;;;;;5032338;28;20053;-65
2023/03/20 08:05:22;;;;;;;17.80;10.15;;;8.80;99.90;;;;;;5032478;28;20042;-64
2023/03/20 08:07:48;;;;;;;16.08;10.30;;;8.90;99.90;;;;;;5031446;28;20045;-65
2023/03/20 08:10:15;;;;;;;15.35;9.52;;;8.90;99.90;;;;;;5032193;28;20064;-64
2023/03/20 08:12:42;;;;;;;19.13;10.55;;;9.10;99.90;;;;;;5032040;28;20060;-64
2023/03/20 08:15:08;;;;;;;17.65;10.98;;;9.10;99.90;;;;;;5031810;28;20057;-64
2023/03/20 08:17:35;;;;;;;15.95;9.82;;;9.10;99.90;;;;;;5032443;28;20060;-65
2023/03/20 08:20:01;;;;;;;16.15;11.10;;;9.20;99.90;;;;;;5031947;28;20050;-64
2023/03/20 08:22:27;;;;;;;15.15;9.73;;;9.30;99.90;;;;;;5032082;28;20111;-65
2023/03/20 08:24:53;;;;;;;17.80;10.15;;;9.30;99.90;;;;;;5032037;28;20049;-65
2023/03/20 08:27:20;;;;;;;17.60;9.98;;;9.40;99.90;;;;;;5032026;28;20434;-65
2023/03/20 08:29:46;;;;;;;17.92;11.60;;;9.40;99.90;;;;;;5031517;28;20500;-65
2023/03/20 08:32:12;;;;;;;16.75;9.95;;;9.50;99.90;;;;;;5031728;28;20458;-64
2023/03/20 08:34:38;;;;;;;17.58;11.30;;;9.60;99.90;;;;;;5031670;28;20428;-65
2023/03/20 08:37:06;;;;;;;15.68;9.63;;;9.60;99.90;;;;;;5031952;28;20053;-64
2023/03/20 08:39:33;;;;;;;15.13;9.98;;;9.70;99.90;;;;;;5031749;28;20046;-64
2023/03/20 08:41:59;;;;;;;15.40;10.70;;;9.70;99.90;;;;;;5031758;28;20404;-65
2023/03/20 08:44:25;;;;;;;17.88;9.95;;;9.70;99.90;;;;;;5032186;28;20049;-65
2023/03/20 08:46:53;;;;;;;15.25;8.60;;;9.80;99.90;;;;;;5030989;28;20107;-65
2023/03/20 08:49:20;;;;;;;16.17;9.27;;;9.90;99.90;;;;;;5050860;28;20048;-65
2023/03/20 08:51:46;;;;;;;14.38;9.27;;;10.00;99.90;;;;;;5049296;28;20128;-65
2023/03/20 08:54:14;;;;;;;13.43;9.52;;;10.10;99.90;;;;;;5032066;28;20045;-64
2023/03/20 08:56:41;;;;;;;17.73;10.07;;;10.10;99.90;;;;;;5031681;28;20122;-65
2023/03/20 08:59:07;;;;;;;13.15;9.05;;;10.10;99.90;;;;;;5031558;28;20115;-65
2023/03/20 09:01:33;;;;;;;15.18;9.23;;;10.10;99.90;;;;;;5031982;28;20049;-65
2023/03/20 09:04:00;;;;;;;13.55;8.57;;;10.00;99.90;;;;;;5030418;28;20041;-65
2023/03/20 09:06:26;;;;;;;15.85;9.75;;;10.10;99.90;;;;;;5031856;28;20099;-65
2023/03/20 09:08:54;;;;;;;16.20;8.68;;;10.20;99.90;;;;;;5031544;28;20050;-65
2023/03/20 09:11:20;;;;;;;15.93;9.10;;;10.30;99.90;;;;;;5031861;28;20492;-65
2023/03/20 09:13:46;;;;;;;15.73;9.07;;;10.50;99.90;;;;;;5031195;28;20065;-65
2023/03/20 09:16:13;;;;;;;14.50;10.10;;;10.50;99.90;;;;;;5031495;28;20425;-65
2023/03/20 09:18:39;;;;;;;11.05;8.15;;;10.70;99.90;;;;;;5030351;28;20072;-64
2023/03/20 09:21:06;;;;;;;14.10;8.82;;;10.80;99.90;;;;;;5031882;28;20088;-64
2023/03/20 09:23:32;;;;;;;11.38;8.57;;;10.70;99.90;;;;;;5031182;28;20539;-64
2023/03/20 09:25:59;;;;;;;14.25;9.00;;;10.70;99.90;;;;;;5031823;28;20057;-64
2023/03/20 09:28:26;;;;;;;18.75;9.38;;;10.90;99.90;;;;;;5031491;28;20149;-65
2023/03/20 09:30:56;;;;;;;13.25;8.35;;;10.90;99.90;;;;;;5030634;28;20049;-65
2023/03/20 09:33:24;;;;;;;13.75;8.55;;;10.80;99.90;;;;;;5031630;28;20062;-65
2023/03/20 09:35:51;;;;;;;16.08;8.90;;;10.90;99.90;;;;;;5033606;28;20057;-64
2023/03/20 09:38:17;;;;;;;13.88;9.63;;;11.00;99.90;;;;;;5033958;28;20072;-65
2023/03/20 09:40:50;;;;;;;16.38;10.13;;;10.90;99.90;;;;;;5034985;28;20401;-65
2023/03/20 09:43:49;;;;;;;17.02;9.70;;;10.90;99.90;;;;;;5034901;28;20049;-64
2023/03/20 09:46:48;;;;;;;15.18;8.85;;;10.70;99.90;;;;;;5035077;28;20046;-65
2023/03/20 09:49:36;;;;;;;13.57;7.75;;;10.80;99.90;;;;;;5053122;28;20105;-64
2023/03/20 09:52:29;;;;;;;15.15;8.43;;;10.70;99.90;;;;;;5051681;28;20051;-64
2023/03/20 09:55:03;;;;;;;15.02;8.07;;;10.70;99.90;;;;;;5029280;28;20103;-65
2023/03/20 09:57:33;;;;;;;13.27;8.90;;;10.60;99.90;;;;;;5035080;28;20076;-64
2023/03/20 10:00:11;;;;;;;14.65;8.32;;;10.60;99.90;;;;;;5034798;28;20045;-65
2023/03/20 10:02:57;;;;;;;;;;;10.50;99.90;;;;;;5035039;28;20049;-66
2023/03/20 10:05:28;;;;;;;11.77;6.53;;;10.50;99.90;;;;;;5034906;28;19932;-64
2023/03/20 10:07:58;;;;;;;14.40;7.88;;;10.40;99.90;;;;;;5034472;28;20068;-65
2023/03/20 10:10:41;;;;;;;16.08;8.57;;;10.40;99.90;;;;;;5034803;28;20126;-65
2023/03/20 10:13:36;;;;;;;11.88;8.77;;;10.50;99.90;;;;;;5034448;28;20405;-65
2023/03/20 10:16:25;;;;;;;13.25;8.70;;;10.50;99.90;;;;;;5019214;28;20111;-65
2023/03/20 10:19:06;;;;;;;14.00;9.93;;;10.50;99.90;;;;;;5034062;28;20362;-64
2023/03/20 10:21:43;;;;;;;14.35;8.55;;;10.30;99.90;;;;;;5034675;28;20124;-64
2023/03/20 10:24:18;;;;;;;12.27;8.60;;;10.30;99.90;;;;;;5033114;28;20050;-65
2023/03/20 10:26:49;;;;;;;11.05;8.20;;;10.40;99.90;;;;;;5034210;28;20049;-65
2023/03/20 10:29:32;;;;;;;15.05;8.32;;;10.30;99.90;;;;;;5034034;28;20046;-65
2023/03/20 10:32:06;;;;;;;12.98;7.28;;;10.20;99.90;;;;;;5034271;28;20053;-65
2023/03/20 10:34:47;;;;;;;15.10;8.00;;;10.20;99.90;;;;;;5034151;28;20118;-65
2023/03/20 10:37:31;;;;;;;11.95;7.35;;;10.20;99.90;;;;;;5034312;28;20140;-66
2023/03/20 10:40:16;;;;;;;10.60;7.03;;;10.30;99.90;;;;;;5033859;28;20045;-65
2023/03/20 10:42:46;;;;;;;13.00;7.88;;;10.20;99.90;;;;;;5033766;28;20150;-64
2023/03/20 10:45:59;;;;;;;12.15;7.20;;;10.20;99.90;;;;;;5033506;28;20049;-64
2023/03/20 10:48:46;;;;;;;12.40;6.78;;;10.30;99.90;;;;;;5031260;28;20112;-65
2023/03/20 10:51:16;;;;;;;10.40;6.22;;;10.30;99.90;;;;;;5034099;28;20049;-64
2023/03/20 10:53:57;;;;;;;13.25;6.60;;;10.30;99.90;;;;;;5033690;28;20061;-65
2023/03/20 10:56:39;;;;;;;16.05;6.35;;;10.40;99.90;;;;;;5033874;28;20075;-64
2023/03/20 10:59:24;;;;;;;8.80;5.25;;;10.40;99.90;;;;;;5033491;28;20054;-64
2023/03/20 11:01:50;;;;;;;10.05;5.63;;;10.60;99.90;;;;;;5033493;28;20492;-64
2023/03/20 11:04:17;;;;;;;10.00;4.88;;;10.60;99.90;;;;;;5033765;28;20111;-65
2023/03/20 11:07:00;;;;;;;9.57;4.00;;;10.60;99.90;;;;;;5032143;28;20049;-64
2023/03/20 11:09:28;;;;;;;9.65;4.35;;;10.60;99.90;;;;;;5033558;28;20057;-64
2023/03/20 11:12:00;;;;;;;7.18;4.93;;;10.60;99.90;;;;;;5033018;28;20401;-63
2023/03/20 11:14:36;;;;;;;8.27;3.90;;;10.60;99.90;;;;;;5033502;28;20049;-64
2023/03/20 11:17:05;;;;;;;8.90;4.20;;;10.60;99.90;;;;;;5033299;28;20053;-64
2023/03/20 11:19:40;;;;;;;9.57;4.63;;;10.60;99.90;;;;;;5032997;28;20056;-64
2023/03/20 11:22:26;;;;;;;8.23;4.75;;;10.60;99.90;;;;;;5033208;28;20046;-64
2023/03/20 11:25:01;;;;;;;8.70;4.85;;;10.60;99.90;;;;;;5033274;28;20111;-64
2023/03/20 11:27:32;;;;;;;10.50;4.95;;;10.50;99.90;;;;;;5033416;28;20050;-63
2023/03/20 11:30:04;;;;;;;10.00;5.13;;;10.50;99.90;;;;;;5033014;28;20117;-65
2023/03/20 11:32:39;;;;;;;7.63;4.88;;;10.50;99.90;;;;;;5032746;28;20103;-64
2023/03/20 11:35:16;;;;;;;13.75;4.60;;;10.60;99.90;;;;;;5032927;28;20148;-64
2023/03/20 11:37:45;;;;;;;9.38;5.13;;;10.70;99.90;;;;;;5032542;28;20107;-64
2023/03/20 11:40:20;;;;;;;9.30;4.65;;;10.60;99.90;;;;;;5033010;28;20060;-64
2023/03/20 11:43:22;;;;;;;9.50;5.10;;;10.60;99.90;;;;;;5032855;28;20409;-64
2023/03/20 11:46:00;;;;;;;10.27;4.30;;;10.50;99.90;;;;;;5024955;28;20045;-65
2023/03/20 11:48:38;;;;;;;8.43;4.57;;;10.40;99.90;;;;;;5044476;28;20041;-64
2023/03/20 11:51:05;;;;;;;9.35;4.55;;;10.50;99.90;;;;;;5052774;28;20045;-64
2023/03/20 11:53:33;;;;;;;9.32;4.50;;;10.50;99.90;;;;;;5038106;28;20056;-64
2023/03/20 11:56:19;;;;;;;7.07;4.60;;;10.60;99.90;;;;;;5033118;28;20068;-65
2023/03/20 11:59:00;;;;;;;9.70;4.05;;;10.50;99.90;;;;;;5031757;28;20041;-64
2023/03/20 12:01:28;;;;;;;7.40;4.13;;;10.50;99.90;;;;;;5033044;28;20111;-64
2023/03/20 12:03:54;;;;;;;10.23;4.50;;;10.40;99.90;;;;;;5031973;28;20458;-63
2023/03/20 12:06:24;;;;;;;9.13;4.80;;;10.40;99.90;;;;;;5032568;28;20095;-64
2023/03/20 12:08:56;;;;;;;8.13;4.15;;;10.40;99.90;;;;;;5032030;28;20049;-65
2023/03/20 12:11:44;;;;;;;7.78;4.20;;;10.50;99.90;;;;;;5032706;28;20041;-64
2023/03/20 12:14:34;;;;;;;9.20;4.57;;;10.50;99.90;;;;;;5032002;28;20065;-64
2023/03/20 12:17:33;;;;;;;10.43;4.57;;;10.30;99.90;;;;;;5031600;28;20055;-64
2023/03/20 12:20:14;;;;;;;9.15;4.20;;;10.20;99.90;;;;;;5032317;28;20053;-64
2023/03/20 12:22:56;;;;;;;11.77;3.92;;;10.20;99.90;;;;;;5032139;28;20068;-64
2023/03/20 12:25:25;;;;;;;8.80;4.35;;;10.10;99.90;;;;;;5032320;28;20052;-65
2023/03/20 12:28:20;;;;;;;10.40;3.92;;;10.20;99.90;;;;;;5031715;28;20053;-65
2023/03/20 12:31:00;;;;;;;7.47;4.50;;;10.10;99.90;;;;;;5012952;28;20187;-64
2023/03/20 12:33:48;;;;;;;9.13;4.50;;;10.10;99.90;;;;;;5032368;28;20050;-64
2023/03/20 12:36:18;;;;;;;10.43;4.10;;;10.00;99.90;;;;;;5030904;28;20478;-65
2023/03/20 12:38:45;;;;;;;10.25;4.38;;;9.90;99.90;;;;;;5031767;28;20049;-64
2023/03/20 12:41:13;;;;;;;7.22;4.43;;;9.80;99.90;;;;;;5031921;28;20060;-64
2023/03/20 12:44:12;;;;;;;7.60;4.45;;;9.70;99.90;;;;;;5030897;28;20458;-65
2023/03/20 12:46:59;;;;;;;7.13;4.25;;;9.70;99.90;;;;;;5029648;28;20058;-64
2023/03/20 12:49:34;;;;;;;10.00;4.35;;;9.70;99.90;;;;;;5032129;28;20108;-65
2023/03/20 12:52:29;;;;;;;11.73;4.45;;;9.70;99.90;;;;;;5030669;28;20049;-65
2023/03/20 12:55:20;;;;;;;9.60;4.35;;;9.70;99.90;;;;;;5032260;28;20053;-66
2023/03/20 12:58:15;;;;;;;7.53;5.10;;;9.60;99.90;;;;;;5031037;28;20060;-65
2023/03/20 13:00:51;;;;;;;10.85;5.13;;;9.50;99.90;;;;;;5030365;28;20045;-65
2023/03/20 13:03:46;;;;;;;8.45;5.10;;;9.40;99.90;;;;;;5031947;28;20054;-65
2023/03/20 13:06:35;;;;;;;8.85;5.55;;;9.50;99.90;;;;;;5017912;28;20045;-65
2023/03/20 13:09:21;;;;;;;11.05;5.43;;;9.40;99.90;;;;;;5033378;28;20493;-65
2023/03/20 13:12:16;;;;;;;9.73;5.75;;;9.30;99.90;;;;;;5034382;28;20059;-65
2023/03/20 13:14:50;;;;;;;11.52;5.72;;;9.40;99.90;;;;;;5033270;28;20060;-65